sensor_id;sensor_type;location;lat;lon;timestamp;P1;durP1;ratioP1;P2;durP2;ratioP2
64520;SDS011;50896;46.714;17.322;2024-02-23T00:01:10;4.75;;;2.40;;
64520;SDS011;50896;46.714;17.322;2024-02-23T00:03:38;3.25;;;2.28;;
64520;SDS011;50896;46.714;17.322;2024-02-23T00:06:05;4.80;;;2.42;;
64520;SDS011;50896;46.714;17.322;2024-02-23T00:08:32;4.15;;;2.40;;
64520;SDS011;50896;46.714;17.322;2024-02-23T00:10:59;6.95;;;2.20;;
64520;SDS011;50896;46.714;17.322;2024-02-23T00:13:26;3.85;;;2.10;;
64520;SDS011;50896;46.714;17.322;2024-02-23T00:15:53;3.10;;;2.22;;
64520;SDS011;50896;46.714;17.322;2024-02-23T00:18:20;4.38;;;2.40;;
64520;SDS011;50896;46.714;17.322;2024-02-23T00:20:47;2.88;;;2.28;;
64520;SDS011;50896;46.714;17.322;2024-02-23T00:23:14;6.05;;;2.15;;
64520;SDS011;50896;46.714;17.322;2024-02-23T00:25:41;3.17;;;2.20;;
64520;SDS011;50896;46.714;17.322;2024-02-23T00:28:08;4.35;;;2.38;;
64520;SDS011;50896;46.714;17.322;2024-02-23T00:30:35;7.05;;;2.03;;
64520;SDS011;50896;46.714;17.322;2024-02-23T00:33:02;5.43;;;2.10;;
64520;SDS011;50896;46.714;17.322;2024-02-23T00:35:31;4.20;;;2.13;;
64520;SDS011;50896;46.714;17.322;2024-02-23T00:37:57;3.60;;;2.10;;
64520;SDS011;50896;46.714;17.322;2024-02-23T00:40:25;6.05;;;2.20;;
64520;SDS011;50896;46.714;17.322;2024-02-23T00:42:52;4.00;;;2.10;;
64520;SDS011;50896;46.714;17.322;2024-02-23T00:45:19;3.50;;;2.10;;
64520;SDS011;50896;46.714;17.322;2024-02-23T00:47:46;4.00;;;2.05;;
64520;SDS011;50896;46.714;17.322;2024-02-23T00:50:14;3.45;;;1.90;;
64520;SDS011;50896;46.714;17.322;2024-02-23T00:52:41;3.53;;;2.08;;
64520;SDS011;50896;46.714;17.322;2024-02-23T00:55:08;4.03;;;1.90;;
64520;SDS011;50896;46.714;17.322;2024-02-23T00:57:35;3.22;;;1.80;;
64520;SDS011;50896;46.714;17.322;2024-02-23T01:00:03;4.47;;;2.20;;
64520;SDS011;50896;46.714;17.322;2024-02-23T01:02:36;4.05;;;1.85;;
64520;SDS011;50896;46.714;17.322;2024-02-23T01:05:04;2.92;;;2.00;;
64520;SDS011;50896;46.714;17.322;2024-02-23T01:07:31;2.88;;;1.75;;
64520;SDS011;50896;46.714;17.322;2024-02-23T01:09:59;2.58;;;1.65;;
64520;SDS011;50896;46.714;17.322;2024-02-23T01:12:26;4.43;;;1.98;;
64520;SDS011;50896;46.714;17.322;2024-02-23T01:14:53;3.60;;;1.95;;
64520;SDS011;50896;46.714;17.322;2024-02-23T01:17:20;3.08;;;2.00;;
64520;SDS011;50896;46.714;17.322;2024-02-23T01:19:47;3.88;;;1.92;;
64520;SDS011;50896;46.714;17.322;2024-02-23T01:22:14;3.75;;;1.85;;
64520;SDS011;50896;46.714;17.322;2024-02-23T01:24:41;3.92;;;1.90;;
64520;SDS011;50896;46.714;17.322;2024-02-23T01:27:08;3.38;;;1.60;;
64520;SDS011;50896;46.714;17.322;2024-02-23T01:29:36;2.40;;;1.77;;
64520;SDS011;50896;46.714;17.322;2024-02-23T01:32:03;3.17;;;1.90;;
64520;SDS011;50896;46.714;17.322;2024-02-23T01:34:30;2.40;;;1.50;;
64520;SDS011;50896;46.714;17.322;2024-02-23T01:36:57;3.28;;;1.65;;
64520;SDS011;50896;46.714;17.322;2024-02-23T01:39:24;2.20;;;1.50;;
64520;SDS011;50896;46.714;17.322;2024-02-23T01:41:51;2.65;;;1.50;;
64520;SDS011;50896;46.714;17.322;2024-02-23T01:44:18;3.67;;;1.58;;
64520;SDS011;50896;46.714;17.322;2024-02-23T01:46:47;2.03;;;1.40;;
64520;SDS011;50896;46.714;17.322;2024-02-23T01:49:14;2.55;;;1.50;;
64520;SDS011;50896;46.714;17.322;2024-02-23T01:51:43;4.32;;;1.40;;
64520;SDS011;50896;46.714;17.322;2024-02-23T01:54:10;4.07;;;1.40;;
64520;SDS011;50896;46.714;17.322;2024-02-23T01:56:37;2.53;;;1.48;;
64520;SDS011;50896;46.714;17.322;2024-02-23T01:59:06;2.30;;;1.30;;
64520;SDS011;50896;46.714;17.322;2024-02-23T02:01:33;2.17;;;1.30;;
64520;SDS011;50896;46.714;17.322;2024-02-23T02:04:00;2.65;;;1.20;;
64520;SDS011;50896;46.714;17.322;2024-02-23T02:06:27;3.03;;;1.30;;
64520;SDS011;50896;46.714;17.322;2024-02-23T02:08:54;4.30;;;1.67;;
64520;SDS011;50896;46.714;17.322;2024-02-23T02:11:21;3.30;;;1.30;;
64520;SDS011;50896;46.714;17.322;2024-02-23T02:13:48;2.83;;;1.40;;
64520;SDS011;50896;46.714;17.322;2024-02-23T02:16:15;1.75;;;1.27;;
64520;SDS011;50896;46.714;17.322;2024-02-23T02:18:42;3.95;;;1.52;;
64520;SDS011;50896;46.714;17.322;2024-02-23T02:21:11;2.55;;;1.10;;
64520;SDS011;50896;46.714;17.322;2024-02-23T02:23:38;2.25;;;1.15;;
64520;SDS011;50896;46.714;17.322;2024-02-23T02:26:05;3.28;;;1.50;;
64520;SDS011;50896;46.714;17.322;2024-02-23T02:28:32;2.55;;;1.20;;
64520;SDS011;50896;46.714;17.322;2024-02-23T02:30:59;1.85;;;1.02;;
64520;SDS011;50896;46.714;17.322;2024-02-23T02:33:26;2.22;;;0.80;;
64520;SDS011;50896;46.714;17.322;2024-02-23T02:35:53;1.80;;;1.05;;
64520;SDS011;50896;46.714;17.322;2024-02-23T02:38:20;2.85;;;1.10;;
64520;SDS011;50896;46.714;17.322;2024-02-23T02:40:47;1.98;;;0.85;;
64520;SDS011;50896;46.714;17.322;2024-02-23T02:43:14;0.75;;;0.65;;
64520;SDS011;50896;46.714;17.322;2024-02-23T02:45:41;0.93;;;0.60;;
64520;SDS011;50896;46.714;17.322;2024-02-23T02:48:08;1.67;;;0.70;;
64520;SDS011;50896;46.714;17.322;2024-02-23T02:50:35;1.73;;;0.60;;
64520;SDS011;50896;46.714;17.322;2024-02-23T02:53:02;0.50;;;0.50;;
64520;SDS011;50896;46.714;17.322;2024-02-23T02:55:29;1.10;;;0.50;;
64520;SDS011;50896;46.714;17.322;2024-02-23T02:57:56;0.80;;;0.50;;
64520;SDS011;50896;46.714;17.322;2024-02-23T03:00:22;1.45;;;0.60;;
64520;SDS011;50896;46.714;17.322;2024-02-23T03:02:49;1.27;;;0.57;;
64520;SDS011;50896;46.714;17.322;2024-02-23T03:05:16;0.57;;;0.47;;
64520;SDS011;50896;46.714;17.322;2024-02-23T03:07:43;0.80;;;0.32;;
64520;SDS011;50896;46.714;17.322;2024-02-23T03:10:10;0.40;;;0.30;;
64520;SDS011;50896;46.714;17.322;2024-02-23T03:12:37;1.30;;;0.38;;
64520;SDS011;50896;46.714;17.322;2024-02-23T03:15:04;0.95;;;0.50;;
64520;SDS011;50896;46.714;17.322;2024-02-23T03:17:32;0.50;;;0.40;;
64520;SDS011;50896;46.714;17.322;2024-02-23T03:19:59;0.70;;;0.30;;
64520;SDS011;50896;46.714;17.322;2024-02-23T03:22:27;0.55;;;0.30;;
64520;SDS011;50896;46.714;17.322;2024-02-23T03:24:54;0.30;;;0.30;;
64520;SDS011;50896;46.714;17.322;2024-02-23T03:27:21;0.40;;;0.30;;
64520;SDS011;50896;46.714;17.322;2024-02-23T03:29:54;0.45;;;0.30;;
64520;SDS011;50896;46.714;17.322;2024-02-23T03:32:21;0.88;;;0.35;;
64520;SDS011;50896;46.714;17.322;2024-02-23T03:34:48;0.43;;;0.30;;
64520;SDS011;50896;46.714;17.322;2024-02-23T03:37:15;0.28;;;0.20;;
64520;SDS011;50896;46.714;17.322;2024-02-23T03:39:42;0.40;;;0.35;;
64520;SDS011;50896;46.714;17.322;2024-02-23T03:42:09;0.20;;;0.20;;
64520;SDS011;50896;46.714;17.322;2024-02-23T03:44:36;0.63;;;0.40;;
64520;SDS011;50896;46.714;17.322;2024-02-23T03:47:03;0.40;;;0.30;;
64520;SDS011;50896;46.714;17.322;2024-02-23T03:49:29;0.80;;;0.40;;
64520;SDS011;50896;46.714;17.322;2024-02-23T03:51:56;0.30;;;0.30;;
64520;SDS011;50896;46.714;17.322;2024-02-23T03:54:23;0.35;;;0.30;;
64520;SDS011;50896;46.714;17.322;2024-02-23T03:56:50;0.40;;;0.30;;
64520;SDS011;50896;46.714;17.322;2024-02-23T03:59:17;0.68;;;0.30;;
64520;SDS011;50896;46.714;17.322;2024-02-23T04:01:44;0.40;;;0.40;;
64520;SDS011;50896;46.714;17.322;2024-02-23T04:04:12;0.95;;;0.45;;
64520;SDS011;50896;46.714;17.322;2024-02-23T04:06:39;1.17;;;0.30;;
64520;SDS011;50896;46.714;17.322;2024-02-23T04:09:06;1.05;;;0.70;;
64520;SDS011;50896;46.714;17.322;2024-02-23T04:11:35;0.80;;;0.50;;
64520;SDS011;50896;46.714;17.322;2024-02-23T04:14:03;0.32;;;0.30;;
64520;SDS011;50896;46.714;17.322;2024-02-23T04:16:32;0.60;;;0.60;;
64520;SDS011;50896;46.714;17.322;2024-02-23T04:18:59;0.30;;;0.30;;
64520;SDS011;50896;46.714;17.322;2024-02-23T04:21:26;0.30;;;0.30;;
64520;SDS011;50896;46.714;17.322;2024-02-23T04:23:53;0.55;;;0.30;;
64520;SDS011;50896;46.714;17.322;2024-02-23T04:26:20;0.70;;;0.40;;
64520;SDS011;50896;46.714;17.322;2024-02-23T04:28:47;0.47;;;0.47;;
64520;SDS011;50896;46.714;17.322;2024-02-23T04:31:14;1.10;;;0.77;;
64520;SDS011;50896;46.714;17.322;2024-02-23T04:33:40;0.40;;;0.40;;
64520;SDS011;50896;46.714;17.322;2024-02-23T04:36:08;0.68;;;0.50;;
64520;SDS011;50896;46.714;17.322;2024-02-23T04:38:35;0.68;;;0.40;;
64520;SDS011;50896;46.714;17.322;2024-02-23T04:41:02;0.40;;;0.40;;
64520;SDS011;50896;46.714;17.322;2024-02-23T04:43:33;0.60;;;0.30;;
64520;SDS011;50896;46.714;17.322;2024-02-23T04:46:00;0.88;;;0.40;;
64520;SDS011;50896;46.714;17.322;2024-02-23T04:48:27;0.77;;;0.63;;
64520;SDS011;50896;46.714;17.322;2024-02-23T04:50:55;0.45;;;0.45;;
64520;SDS011;50896;46.714;17.322;2024-02-23T04:53:22;1.63;;;0.50;;
64520;SDS011;50896;46.714;17.322;2024-02-23T04:55:49;0.60;;;0.40;;
64520;SDS011;50896;46.714;17.322;2024-02-23T04:58:15;0.30;;;0.30;;
64520;SDS011;50896;46.714;17.322;2024-02-23T05:00:42;0.30;;;0.30;;
64520;SDS011;50896;46.714;17.322;2024-02-23T05:03:09;1.00;;;0.57;;
64520;SDS011;50896;46.714;17.322;2024-02-23T05:05:38;0.43;;;0.30;;
64520;SDS011;50896;46.714;17.322;2024-02-23T05:08:06;1.08;;;0.45;;
64520;SDS011;50896;46.714;17.322;2024-02-23T05:10:33;0.50;;;0.32;;
64520;SDS011;50896;46.714;17.322;2024-02-23T05:13:00;0.32;;;0.32;;
64520;SDS011;50896;46.714;17.322;2024-02-23T05:15:26;0.65;;;0.52;;
64520;SDS011;50896;46.714;17.322;2024-02-23T05:17:53;1.27;;;0.32;;
64520;SDS011;50896;46.714;17.322;2024-02-23T05:20:20;0.95;;;0.40;;
64520;SDS011;50896;46.714;17.322;2024-02-23T05:22:47;0.90;;;0.60;;
64520;SDS011;50896;46.714;17.322;2024-02-23T05:25:14;1.05;;;0.40;;
64520;SDS011;50896;46.714;17.322;2024-02-23T05:27:41;0.30;;;0.30;;
64520;SDS011;50896;46.714;17.322;2024-02-23T05:30:08;0.30;;;0.30;;
64520;SDS011;50896;46.714;17.322;2024-02-23T05:32:36;1.20;;;0.75;;
64520;SDS011;50896;46.714;17.322;2024-02-23T05:35:03;0.50;;;0.50;;
64520;SDS011;50896;46.714;17.322;2024-02-23T05:37:30;1.27;;;0.50;;
64520;SDS011;50896;46.714;17.322;2024-02-23T05:39:57;2.15;;;0.50;;
64520;SDS011;50896;46.714;17.322;2024-02-23T05:42:30;0.70;;;0.60;;
64520;SDS011;50896;46.714;17.322;2024-02-23T05:44:57;0.85;;;0.60;;
64520;SDS011;50896;46.714;17.322;2024-02-23T05:47:24;1.08;;;0.73;;
64520;SDS011;50896;46.714;17.322;2024-02-23T05:49:51;0.55;;;0.40;;
64520;SDS011;50896;46.714;17.322;2024-02-23T05:52:18;0.52;;;0.40;;
64520;SDS011;50896;46.714;17.322;2024-02-23T05:54:45;0.38;;;0.30;;
64520;SDS011;50896;46.714;17.322;2024-02-23T05:57:13;0.35;;;0.35;;
64520;SDS011;50896;46.714;17.322;2024-02-23T05:59:40;0.30;;;0.30;;
64520;SDS011;50896;46.714;17.322;2024-02-23T06:02:07;0.30;;;0.30;;
64520;SDS011;50896;46.714;17.322;2024-02-23T06:04:34;0.75;;;0.45;;
64520;SDS011;50896;46.714;17.322;2024-02-23T06:07:00;1.17;;;0.38;;
64520;SDS011;50896;46.714;17.322;2024-02-23T06:09:27;0.55;;;0.40;;
64520;SDS011;50896;46.714;17.322;2024-02-23T06:11:54;0.50;;;0.30;;
64520;SDS011;50896;46.714;17.322;2024-02-23T06:14:21;0.60;;;0.40;;
64520;SDS011;50896;46.714;17.322;2024-02-23T06:16:49;0.93;;;0.40;;
64520;SDS011;50896;46.714;17.322;2024-02-23T06:19:17;0.50;;;0.40;;
64520;SDS011;50896;46.714;17.322;2024-02-23T06:21:47;1.67;;;0.40;;
64520;SDS011;50896;46.714;17.322;2024-02-23T06:24:14;0.47;;;0.30;;
64520;SDS011;50896;46.714;17.322;2024-02-23T06:26:41;0.30;;;0.30;;
64520;SDS011;50896;46.714;17.322;2024-02-23T06:29:08;1.63;;;0.40;;
64520;SDS011;50896;46.714;17.322;2024-02-23T06:31:37;0.63;;;0.40;;
64520;SDS011;50896;46.714;17.322;2024-02-23T06:34:05;0.68;;;0.45;;
64520;SDS011;50896;46.714;17.322;2024-02-23T06:36:32;0.40;;;0.40;;
64520;SDS011;50896;46.714;17.322;2024-02-23T06:38:59;0.50;;;0.30;;
64520;SDS011;50896;46.714;17.322;2024-02-23T06:41:25;1.70;;;0.50;;
64520;SDS011;50896;46.714;17.322;2024-02-23T06:43:53;0.35;;;0.35;;
64520;SDS011;50896;46.714;17.322;2024-02-23T06:46:21;1.20;;;0.50;;
64520;SDS011;50896;46.714;17.322;2024-02-23T06:48:48;0.55;;;0.40;;
64520;SDS011;50896;46.714;17.322;2024-02-23T06:51:15;0.70;;;0.47;;
64520;SDS011;50896;46.714;17.322;2024-02-23T06:53:43;0.57;;;0.50;;
64520;SDS011;50896;46.714;17.322;2024-02-23T06:56:09;0.73;;;0.50;;
64520;SDS011;50896;46.714;17.322;2024-02-23T06:58:36;2.35;;;0.57;;
64520;SDS011;50896;46.714;17.322;2024-02-23T07:01:03;2.05;;;0.70;;
64520;SDS011;50896;46.714;17.322;2024-02-23T07:03:32;0.70;;;0.45;;
64520;SDS011;50896;46.714;17.322;2024-02-23T07:06:02;5.22;;;2.15;;
64520;SDS011;50896;46.714;17.322;2024-02-23T07:08:30;2.78;;;0.82;;
64520;SDS011;50896;46.714;17.322;2024-02-23T07:10:57;2.28;;;0.60;;
64520;SDS011;50896;46.714;17.322;2024-02-23T07:13:24;1.10;;;0.90;;
64520;SDS011;50896;46.714;17.322;2024-02-23T07:15:51;1.10;;;1.00;;
64520;SDS011;50896;46.714;17.322;2024-02-23T07:18:18;2.25;;;1.10;;
64520;SDS011;50896;46.714;17.322;2024-02-23T07:20:45;1.27;;;1.00;;
64520;SDS011;50896;46.714;17.322;2024-02-23T07:23:11;1.75;;;0.77;;
64520;SDS011;50896;46.714;17.322;2024-02-23T07:25:38;1.42;;;0.90;;
64520;SDS011;50896;46.714;17.322;2024-02-23T07:28:05;2.17;;;0.80;;
64520;SDS011;50896;46.714;17.322;2024-02-23T07:30:32;1.30;;;0.80;;
64520;SDS011;50896;46.714;17.322;2024-02-23T07:32:58;2.53;;;1.30;;
64520;SDS011;50896;46.714;17.322;2024-02-23T07:35:25;3.47;;;1.90;;
64520;SDS011;50896;46.714;17.322;2024-02-23T07:37:55;6.07;;;3.08;;
64520;SDS011;50896;46.714;17.322;2024-02-23T07:40:22;1.83;;;1.40;;
64520;SDS011;50896;46.714;17.322;2024-02-23T07:42:49;1.35;;;1.20;;
64520;SDS011;50896;46.714;17.322;2024-02-23T07:45:15;1.83;;;0.80;;
64520;SDS011;50896;46.714;17.322;2024-02-23T07:47:42;1.98;;;0.80;;
64520;SDS011;50896;46.714;17.322;2024-02-23T07:50:09;0.80;;;0.63;;
64520;SDS011;50896;46.714;17.322;2024-02-23T07:52:36;2.67;;;0.70;;
64520;SDS011;50896;46.714;17.322;2024-02-23T07:55:05;1.98;;;0.70;;
64520;SDS011;50896;46.714;17.322;2024-02-23T07:57:32;1.85;;;1.00;;
64520;SDS011;50896;46.714;17.322;2024-02-23T08:00:01;1.60;;;0.90;;
64520;SDS011;50896;46.714;17.322;2024-02-23T08:02:37;1.83;;;1.00;;
64520;SDS011;50896;46.714;17.322;2024-02-23T08:05:05;1.13;;;1.00;;
64520;SDS011;50896;46.714;17.322;2024-02-23T08:07:33;1.80;;;1.10;;
64520;SDS011;50896;46.714;17.322;2024-02-23T08:10:00;4.43;;;1.40;;
64520;SDS011;50896;46.714;17.322;2024-02-23T08:12:29;1.85;;;1.17;;
64520;SDS011;50896;46.714;17.322;2024-02-23T08:14:57;1.40;;;0.85;;
64520;SDS011;50896;46.714;17.322;2024-02-23T08:17:24;1.40;;;0.80;;
64520;SDS011;50896;46.714;17.322;2024-02-23T08:19:52;1.70;;;0.95;;
64520;SDS011;50896;46.714;17.322;2024-02-23T08:22:19;1.17;;;0.85;;
64520;SDS011;50896;46.714;17.322;2024-02-23T08:24:46;1.73;;;1.00;;
64520;SDS011;50896;46.714;17.322;2024-02-23T08:27:13;3.53;;;0.90;;
64520;SDS011;50896;46.714;17.322;2024-02-23T08:29:40;1.75;;;1.00;;
64520;SDS011;50896;46.714;17.322;2024-02-23T08:32:08;1.85;;;1.10;;
64520;SDS011;50896;46.714;17.322;2024-02-23T08:34:34;1.38;;;0.77;;
64520;SDS011;50896;46.714;17.322;2024-02-23T08:37:01;0.60;;;0.60;;
64520;SDS011;50896;46.714;17.322;2024-02-23T08:39:28;3.95;;;0.93;;
64520;SDS011;50896;46.714;17.322;2024-02-23T08:41:56;2.13;;;0.80;;
64520;SDS011;50896;46.714;17.322;2024-02-23T08:44:23;1.73;;;0.85;;
64520;SDS011;50896;46.714;17.322;2024-02-23T08:46:50;1.88;;;0.90;;
64520;SDS011;50896;46.714;17.322;2024-02-23T08:49:17;1.10;;;1.00;;
64520;SDS011;50896;46.714;17.322;2024-02-23T08:51:44;1.80;;;0.95;;
64520;SDS011;50896;46.714;17.322;2024-02-23T08:54:11;1.40;;;0.80;;
64520;SDS011;50896;46.714;17.322;2024-02-23T08:56:38;2.00;;;0.90;;
64520;SDS011;50896;46.714;17.322;2024-02-23T08:59:06;1.45;;;0.85;;
64520;SDS011;50896;46.714;17.322;2024-02-23T09:01:33;2.38;;;1.15;;
64520;SDS011;50896;46.714;17.322;2024-02-23T09:04:00;2.13;;;1.15;;
64520;SDS011;50896;46.714;17.322;2024-02-23T09:06:26;2.03;;;1.33;;
64520;SDS011;50896;46.714;17.322;2024-02-23T09:08:54;1.42;;;0.90;;
64520;SDS011;50896;46.714;17.322;2024-02-23T09:11:22;2.30;;;0.93;;
64520;SDS011;50896;46.714;17.322;2024-02-23T09:13:49;2.70;;;1.05;;
64520;SDS011;50896;46.714;17.322;2024-02-23T09:16:16;2.05;;;1.10;;
64520;SDS011;50896;46.714;17.322;2024-02-23T09:18:42;6.07;;;2.40;;
64520;SDS011;50896;46.714;17.322;2024-02-23T09:21:09;4.75;;;2.88;;
64520;SDS011;50896;46.714;17.322;2024-02-23T09:23:36;3.50;;;1.80;;
64520;SDS011;50896;46.714;17.322;2024-02-23T09:26:08;3.13;;;1.17;;
64520;SDS011;50896;46.714;17.322;2024-02-23T09:28:37;6.10;;;2.80;;
64520;SDS011;50896;46.714;17.322;2024-02-23T09:31:04;7.85;;;3.17;;
64520;SDS011;50896;46.714;17.322;2024-02-23T09:33:32;2.35;;;1.50;;
64520;SDS011;50896;46.714;17.322;2024-02-23T09:35:59;2.80;;;1.50;;
64520;SDS011;50896;46.714;17.322;2024-02-23T09:38:26;3.65;;;1.60;;
64520;SDS011;50896;46.714;17.322;2024-02-23T09:40:53;2.55;;;1.30;;
64520;SDS011;50896;46.714;17.322;2024-02-23T09:43:20;1.88;;;1.35;;
64520;SDS011;50896;46.714;17.322;2024-02-23T09:45:52;1.83;;;1.40;;
64520;SDS011;50896;46.714;17.322;2024-02-23T09:48:19;3.80;;;1.40;;
64520;SDS011;50896;46.714;17.322;2024-02-23T09:50:48;5.85;;;2.60;;
64520;SDS011;50896;46.714;17.322;2024-02-23T09:53:19;1.92;;;1.48;;
64520;SDS011;50896;46.714;17.322;2024-02-23T09:55:48;3.13;;;1.67;;
64520;SDS011;50896;46.714;17.322;2024-02-23T10:00:46;2.70;;;1.50;;
64520;SDS011;50896;46.714;17.322;2024-02-23T10:03:13;2.65;;;1.60;;
64520;SDS011;50896;46.714;17.322;2024-02-23T10:05:40;3.45;;;1.67;;
64520;SDS011;50896;46.714;17.322;2024-02-23T10:08:08;5.10;;;1.90;;
64520;SDS011;50896;46.714;17.322;2024-02-23T10:10:36;3.95;;;2.00;;
64520;SDS011;50896;46.714;17.322;2024-02-23T10:13:05;2.83;;;1.50;;
64520;SDS011;50896;46.714;17.322;2024-02-23T10:15:32;2.67;;;1.40;;
64520;SDS011;50896;46.714;17.322;2024-02-23T10:17:59;4.43;;;1.83;;
64520;SDS011;50896;46.714;17.322;2024-02-23T10:20:26;6.38;;;2.00;;
64520;SDS011;50896;46.714;17.322;2024-02-23T10:22:53;4.20;;;1.92;;
64520;SDS011;50896;46.714;17.322;2024-02-23T10:25:20;4.43;;;2.10;;
64520;SDS011;50896;46.714;17.322;2024-02-23T10:27:48;4.05;;;1.40;;
64520;SDS011;50896;46.714;17.322;2024-02-23T10:30:15;2.88;;;1.70;;
64520;SDS011;50896;46.714;17.322;2024-02-23T10:32:43;3.55;;;1.40;;
64520;SDS011;50896;46.714;17.322;2024-02-23T10:35:11;2.92;;;1.70;;
64520;SDS011;50896;46.714;17.322;2024-02-23T10:37:42;3.78;;;1.73;;
64520;SDS011;50896;46.714;17.322;2024-02-23T10:40:11;2.80;;;1.75;;
64520;SDS011;50896;46.714;17.322;2024-02-23T10:45:08;7.25;;;4.05;;
64520;SDS011;50896;46.714;17.322;2024-02-23T10:47:36;8.63;;;4.63;;
64520;SDS011;50896;46.714;17.322;2024-02-23T10:50:04;13.25;;;6.57;;
64520;SDS011;50896;46.714;17.322;2024-02-23T10:52:33;11.52;;;6.13;;
64520;SDS011;50896;46.714;17.322;2024-02-23T10:55:01;7.35;;;4.03;;
64520;SDS011;50896;46.714;17.322;2024-02-23T10:57:31;5.72;;;2.53;;
64520;SDS011;50896;46.714;17.322;2024-02-23T10:59:59;3.38;;;2.10;;
64520;SDS011;50896;46.714;17.322;2024-02-23T11:02:27;1.98;;;1.40;;
64520;SDS011;50896;46.714;17.322;2024-02-23T11:04:58;1.77;;;1.20;;
64520;SDS011;50896;46.714;17.322;2024-02-23T11:07:26;2.53;;;1.42;;
64520;SDS011;50896;46.714;17.322;2024-02-23T11:09:59;2.45;;;1.30;;
64520;SDS011;50896;46.714;17.322;2024-02-23T11:12:28;1.75;;;1.10;;
64520;SDS011;50896;46.714;17.322;2024-02-23T11:17:26;2.53;;;1.50;;
64520;SDS011;50896;46.714;17.322;2024-02-23T11:19:57;2.45;;;1.73;;
64520;SDS011;50896;46.714;17.322;2024-02-23T11:22:31;3.70;;;2.13;;
64520;SDS011;50896;46.714;17.322;2024-02-23T11:25:05;2.80;;;1.52;;
64520;SDS011;50896;46.714;17.322;2024-02-23T11:27:35;3.33;;;1.85;;
64520;SDS011;50896;46.714;17.322;2024-02-23T11:30:07;3.58;;;2.45;;
64520;SDS011;50896;46.714;17.322;2024-02-23T11:32:40;3.10;;;2.15;;
64520;SDS011;50896;46.714;17.322;2024-02-23T11:35:10;2.65;;;1.83;;
64520;SDS011;50896;46.714;17.322;2024-02-23T11:37:54;2.60;;;1.90;;
64520;SDS011;50896;46.714;17.322;2024-02-23T11:40:26;2.47;;;1.67;;
64520;SDS011;50896;46.714;17.322;2024-02-23T11:42:56;4.00;;;2.00;;
64520;SDS011;50896;46.714;17.322;2024-02-23T11:45:23;5.68;;;1.88;;
64520;SDS011;50896;46.714;17.322;2024-02-23T11:47:51;3.22;;;2.00;;
64520;SDS011;50896;46.714;17.322;2024-02-23T11:50:19;4.22;;;2.20;;
64520;SDS011;50896;46.714;17.322;2024-02-23T11:52:47;3.20;;;2.03;;
64520;SDS011;50896;46.714;17.322;2024-02-23T11:55:18;3.75;;;1.92;;
64520;SDS011;50896;46.714;17.322;2024-02-23T11:57:50;2.92;;;1.80;;
64520;SDS011;50896;46.714;17.322;2024-02-23T12:00:30;3.45;;;2.38;;
64520;SDS011;50896;46.714;17.322;2024-02-23T12:02:57;3.38;;;2.17;;
64520;SDS011;50896;46.714;17.322;2024-02-23T12:05:24;4.00;;;2.17;;
64520;SDS011;50896;46.714;17.322;2024-02-23T12:07:51;3.97;;;2.10;;
64520;SDS011;50896;46.714;17.322;2024-02-23T12:10:19;5.55;;;2.58;;
64520;SDS011;50896;46.714;17.322;2024-02-23T12:12:47;2.97;;;2.50;;
64520;SDS011;50896;46.714;17.322;2024-02-23T12:15:15;2.25;;;1.90;;
64520;SDS011;50896;46.714;17.322;2024-02-23T12:17:48;2.67;;;2.17;;
64520;SDS011;50896;46.714;17.322;2024-02-23T12:20:17;2.45;;;1.85;;
64520;SDS011;50896;46.714;17.322;2024-02-23T12:22:44;4.38;;;1.98;;
64520;SDS011;50896;46.714;17.322;2024-02-23T12:25:12;2.40;;;1.80;;
64520;SDS011;50896;46.714;17.322;2024-02-23T12:27:40;3.72;;;1.85;;
64520;SDS011;50896;46.714;17.322;2024-02-23T12:30:13;6.00;;;1.83;;
64520;SDS011;50896;46.714;17.322;2024-02-23T12:32:41;2.63;;;1.90;;
64520;SDS011;50896;46.714;17.322;2024-02-23T12:35:10;3.92;;;1.90;;
64520;SDS011;50896;46.714;17.322;2024-02-23T12:37:38;4.15;;;1.83;;
64520;SDS011;50896;46.714;17.322;2024-02-23T12:40:09;3.08;;;1.75;;
64520;SDS011;50896;46.714;17.322;2024-02-23T12:42:36;2.35;;;1.83;;
64520;SDS011;50896;46.714;17.322;2024-02-23T12:45:03;2.33;;;1.70;;
64520;SDS011;50896;46.714;17.322;2024-02-23T12:47:30;2.00;;;1.70;;
64520;SDS011;50896;46.714;17.322;2024-02-23T12:49:57;2.65;;;2.15;;
64520;SDS011;50896;46.714;17.322;2024-02-23T12:52:24;2.30;;;1.70;;
64520;SDS011;50896;46.714;17.322;2024-02-23T12:54:52;2.65;;;1.95;;
64520;SDS011;50896;46.714;17.322;2024-02-23T12:57:19;2.25;;;1.50;;
64520;SDS011;50896;46.714;17.322;2024-02-23T12:59:45;2.30;;;1.58;;
64520;SDS011;50896;46.714;17.322;2024-02-23T13:02:12;2.67;;;2.00;;
64520;SDS011;50896;46.714;17.322;2024-02-23T13:04:39;3.08;;;1.88;;
64520;SDS011;50896;46.714;17.322;2024-02-23T13:07:06;1.95;;;1.50;;
64520;SDS011;50896;46.714;17.322;2024-02-23T13:09:34;2.83;;;1.55;;
64520;SDS011;50896;46.714;17.322;2024-02-23T13:12:00;2.75;;;1.60;;
64520;SDS011;50896;46.714;17.322;2024-02-23T13:14:27;2.10;;;1.58;;
64520;SDS011;50896;46.714;17.322;2024-02-23T13:16:54;2.15;;;1.50;;
64520;SDS011;50896;46.714;17.322;2024-02-23T13:19:21;3.03;;;1.88;;
64520;SDS011;50896;46.714;17.322;2024-02-23T13:21:48;3.00;;;1.85;;
64520;SDS011;50896;46.714;17.322;2024-02-23T13:24:15;3.75;;;1.60;;
64520;SDS011;50896;46.714;17.322;2024-02-23T13:26:42;2.75;;;1.50;;
64520;SDS011;50896;46.714;17.322;2024-02-23T13:29:09;2.47;;;1.65;;
64520;SDS011;50896;46.714;17.322;2024-02-23T13:31:36;2.08;;;1.67;;
64520;SDS011;50896;46.714;17.322;2024-02-23T13:34:05;4.50;;;2.33;;
64520;SDS011;50896;46.714;17.322;2024-02-23T13:36:33;2.75;;;1.90;;
64520;SDS011;50896;46.714;17.322;2024-02-23T13:39:00;3.30;;;2.05;;
64520;SDS011;50896;46.714;17.322;2024-02-23T13:41:27;4.55;;;2.25;;
64520;SDS011;50896;46.714;17.322;2024-02-23T13:43:54;5.57;;;2.78;;
64520;SDS011;50896;46.714;17.322;2024-02-23T13:46:21;3.63;;;2.47;;
64520;SDS011;50896;46.714;17.322;2024-02-23T13:49:01;5.22;;;2.90;;
64520;SDS011;50896;46.714;17.322;2024-02-23T13:51:33;3.58;;;2.28;;
64520;SDS011;50896;46.714;17.322;2024-02-23T13:54:00;3.97;;;2.40;;
64520;SDS011;50896;46.714;17.322;2024-02-23T13:56:27;5.63;;;2.25;;
64520;SDS011;50896;46.714;17.322;2024-02-23T13:58:54;4.95;;;3.00;;
64520;SDS011;50896;46.714;17.322;2024-02-23T14:01:21;3.63;;;2.58;;
64520;SDS011;50896;46.714;17.322;2024-02-23T14:03:48;4.28;;;2.72;;
64520;SDS011;50896;46.714;17.322;2024-02-23T14:06:15;5.38;;;3.30;;
64520;SDS011;50896;46.714;17.322;2024-02-23T14:08:42;6.57;;;3.30;;
64520;SDS011;50896;46.714;17.322;2024-02-23T14:11:10;6.75;;;3.45;;
64520;SDS011;50896;46.714;17.322;2024-02-23T14:13:38;6.03;;;3.40;;
64520;SDS011;50896;46.714;17.322;2024-02-23T14:16:05;5.35;;;3.53;;
64520;SDS011;50896;46.714;17.322;2024-02-23T14:18:32;5.75;;;3.63;;
64520;SDS011;50896;46.714;17.322;2024-02-23T14:21:04;6.45;;;4.13;;
64520;SDS011;50896;46.714;17.322;2024-02-23T14:23:31;9.43;;;6.40;;
64520;SDS011;50896;46.714;17.322;2024-02-23T14:25:58;9.90;;;6.85;;
64520;SDS011;50896;46.714;17.322;2024-02-23T14:28:25;7.53;;;5.88;;
64520;SDS011;50896;46.714;17.322;2024-02-23T14:30:52;10.63;;;6.95;;
64520;SDS011;50896;46.714;17.322;2024-02-23T14:33:19;6.57;;;4.80;;
64520;SDS011;50896;46.714;17.322;2024-02-23T14:35:47;6.10;;;4.30;;
64520;SDS011;50896;46.714;17.322;2024-02-23T14:38:16;5.88;;;4.00;;
64520;SDS011;50896;46.714;17.322;2024-02-23T14:40:43;5.85;;;3.63;;
64520;SDS011;50896;46.714;17.322;2024-02-23T14:43:10;5.70;;;3.42;;